Time;durP1;ratioP1;P1;durP2;ratioP2;P2;SDS_P1;SDS_P2;PMS_P1;PMS_P2;Temp;Humidity;BMP_temperature;BMP_pressure;BME280_temperature;BME280_humidity;BME280_pressure;Samples;Min_cycle;Max_cycle;Signal;HPM_P1;HPM_P2
2023/07/26 00:01:20;;;;;;;7.50;4.60;;;;;;;;;;107721;1254;25389;-79
2023/07/26 00:03:46;;;;;;;6.50;4.80;;;;;;;;;;107735;1251;25327;-79
2023/07/26 00:06:13;;;;;;;6.00;4.60;;;;;;;;;;108411;1251;25372;-79
2023/07/26 00:08:39;;;;;;;6.60;4.30;;;;;;;;;;107681;1251;22701;-78
2023/07/26 00:11:05;;;;;;;7.20;5.40;;;;;;;;;;107703;1251;22549;-79
2023/07/26 00:13:32;;;;;;;9.00;4.90;;;;;;;;;;107856;1253;22531;-78
2023/07/26 00:15:59;;;;;;;7.90;5.30;;;;;;;;;;107684;1250;25331;-79
2023/07/26 00:18:25;;;;;;;9.00;4.60;;;;;;;;;;107797;1250;22645;-79
2023/07/26 00:20:51;;;;;;;7.00;5.00;;;;;;;;;;107691;1251;25003;-79
2023/07/26 00:23:18;;;;;;;14.20;5.90;;;;;;;;;;107725;1251;24262;-78
2023/07/26 00:25:44;;;;;;;8.60;5.20;;;;;;;;;;107698;1251;22531;-78
2023/07/26 00:28:11;;;;;;;8.20;5.30;;;;;;;;;;107699;1251;23028;-78
2023/07/26 00:30:37;;;;;;;10.10;5.70;;;;;;;;;;107688;1251;25316;-78
2023/07/26 00:33:03;;;;;;;10.50;6.10;;;;;;;;;;108093;1254;25448;-80
2023/07/26 00:35:33;;;;;;;9.40;5.10;;;;;;;;;;108329;1249;23034;-78
2023/07/26 00:37:59;;;;;;;6.50;5.30;;;;;;;;;;108400;1250;23623;-78
2023/07/26 00:40:25;;;;;;;7.90;4.70;;;;;;;;;;108367;1251;23381;-78
2023/07/26 00:42:52;;;;;;;7.90;6.40;;;;;;;;;;109034;1250;25319;-79
2023/07/26 00:45:18;;;;;;;10.20;6.00;;;;;;;;;;108456;1250;23380;-78
2023/07/26 00:47:44;;;;;;;9.00;4.90;;;;;;;;;;108496;1251;26500;-78
2023/07/26 00:50:11;;;;;;;11.30;6.30;;;;;;;;;;108487;1253;25284;-79
2023/07/26 00:52:37;;;;;;;11.00;5.30;;;;;;;;;;109606;1249;22152;-80
2023/07/26 00:55:04;;;;;;;7.40;5.70;;;;;;;;;;108541;1250;24237;-79
2023/07/26 00:57:30;;;;;;;7.40;5.20;;;;;;;;;;108514;1251;25702;-78
2023/07/26 00:59:57;;;;;;;14.10;5.80;;;;;;;;;;108401;1249;26040;-79
2023/07/26 01:02:24;;;;;;;8.10;6.20;;;;;;;;;;108509;1251;22703;-79
2023/07/26 01:04:50;;;;;;;11.50;6.30;;;;;;;;;;108451;1249;25466;-80
2023/07/26 01:07:20;;;;;;;10.40;6.30;;;;;;;;;;108552;1250;22535;-80
2023/07/26 01:09:55;;;;;;;10.70;7.30;;;;;;;;;;108437;1251;22603;-79
2023/07/26 01:12:22;;;;;;;9.00;7.30;;;;;;;;;;107845;1253;22661;-79
2023/07/26 01:14:54;;;;;;;10.30;6.70;;;;;;;;;;107793;1250;23300;-79
2023/07/26 01:17:20;;;;;;;10.50;6.20;;;;;;;;;;107855;1253;25341;-78
2023/07/26 01:19:47;;;;;;;8.10;6.20;;;;;;;;;;107896;1253;22543;-79
2023/07/26 01:22:13;;;;;;;8.80;6.50;;;;;;;;;;108573;1249;25300;-79
2023/07/26 01:24:39;;;;;;;9.80;7.40;;;;;;;;;;108712;1251;22253;-79
2023/07/26 01:27:06;;;;;;;10.10;6.60;;;;;;;;;;110902;1249;23348;-79
2023/07/26 01:29:32;;;;;;;9.40;7.10;;;;;;;;;;108503;1250;22694;-79
2023/07/26 01:31:59;;;;;;;8.30;6.90;;;;;;;;;;107920;1253;22533;-78
2023/07/26 01:34:25;;;;;;;9.80;7.00;;;;;;;;;;107919;1251;22528;-78
2023/07/26 01:36:52;;;;;;;8.40;5.80;;;;;;;;;;107806;1251;25303;-78
2023/07/26 01:39:18;;;;;;;9.80;6.20;;;;;;;;;;107860;1251;23318;-79
2023/07/26 01:41:45;;;;;;;12.60;7.80;;;;;;;;;;107930;1251;22541;-79
2023/07/26 01:44:12;;;;;;;10.60;7.20;;;;;;;;;;107750;1250;24260;-79
2023/07/26 01:46:38;;;;;;;8.50;6.20;;;;;;;;;;107966;1249;22579;-78
2023/07/26 01:49:05;;;;;;;9.30;6.90;;;;;;;;;;110181;1250;22624;-79
2023/07/26 01:51:31;;;;;;;9.70;6.40;;;;;;;;;;110718;1250;22304;-80
2023/07/26 01:53:58;;;;;;;8.20;6.80;;;;;;;;;;109396;1251;22544;-79
2023/07/26 01:56:24;;;;;;;11.70;6.20;;;;;;;;;;107710;1253;22535;-78
2023/07/26 01:58:50;;;;;;;12.20;7.10;;;;;;;;;;107769;1253;24318;-79
2023/07/26 02:01:17;;;;;;;9.20;5.60;;;;;;;;;;107752;1251;22593;-78
2023/07/26 02:03:43;;;;;;;6.60;5.10;;;;;;;;;;107703;1251;22727;-78
2023/07/26 02:06:10;;;;;;;7.50;5.80;;;;;;;;;;107743;1250;24288;-78
2023/07/26 02:08:36;;;;;;;6.70;5.20;;;;;;;;;;107783;1251;25364;-79
2023/07/26 02:11:02;;;;;;;9.00;5.70;;;;;;;;;;107748;1253;24960;-79
2023/07/26 02:13:29;;;;;;;10.20;5.30;;;;;;;;;;107825;1249;24202;-78
2023/07/26 02:15:55;;;;;;;8.30;6.40;;;;;;;;;;107723;1250;22592;-79
2023/07/26 02:18:21;;;;;;;7.50;5.60;;;;;;;;;;107799;1251;26180;-79
2023/07/26 02:20:48;;;;;;;5.90;4.90;;;;;;;;;;107758;1249;22586;-79
2023/07/26 02:23:15;;;;;;;6.40;5.20;;;;;;;;;;107791;1251;23305;-79
2023/07/26 02:25:41;;;;;;;8.40;5.80;;;;;;;;;;107705;1251;22543;-79
2023/07/26 02:28:07;;;;;;;8.80;6.50;;;;;;;;;;109673;1249;22387;-79
2023/07/26 02:30:34;;;;;;;10.50;7.40;;;;;;;;;;110612;1249;25428;-79
2023/07/26 02:33:00;;;;;;;16.20;8.30;;;;;;;;;;109499;1251;23083;-79
2023/07/26 02:35:27;;;;;;;11.50;7.90;;;;;;;;;;110696;1249;22706;-79
2023/07/26 02:37:53;;;;;;;11.80;7.90;;;;;;;;;;110711;1249;23148;-79
2023/07/26 02:40:20;;;;;;;9.00;6.50;;;;;;;;;;109444;1250;22532;-78
2023/07/26 02:42:46;;;;;;;8.30;5.30;;;;;;;;;;107701;1253;22582;-79
2023/07/26 02:45:13;;;;;;;6.80;5.40;;;;;;;;;;107739;1251;22559;-80
2023/07/26 02:47:39;;;;;;;9.00;4.90;;;;;;;;;;107745;1251;22549;-78
2023/07/26 02:50:06;;;;;;;6.90;5.00;;;;;;;;;;107734;1250;24292;-80
2023/07/26 02:52:32;;;;;;;8.70;4.90;;;;;;;;;;107763;1249;24201;-79
2023/07/26 02:54:59;;;;;;;8.10;4.70;;;;;;;;;;107709;1250;22998;-79
2023/07/26 02:57:25;;;;;;;8.90;4.90;;;;;;;;;;107707;1253;22531;-78
2023/07/26 02:59:51;;;;;;;8.80;5.30;;;;;;;;;;107773;1250;23169;-79
2023/07/26 03:02:18;;;;;;;8.10;5.80;;;;;;;;;;107735;1251;22703;-81
2023/07/26 03:04:45;;;;;;;7.80;5.10;;;;;;;;;;107742;1253;22631;-79
2023/07/26 03:07:11;;;;;;;7.60;4.90;;;;;;;;;;108145;1250;25722;-79
2023/07/26 03:09:38;;;;;;;9.20;5.90;;;;;;;;;;108116;1254;22530;-79
2023/07/26 03:12:04;;;;;;;7.80;5.60;;;;;;;;;;107697;1250;26378;-79
2023/07/26 03:14:31;;;;;;;11.50;6.30;;;;;;;;;;108303;1251;26616;-79
2023/07/26 03:16:57;;;;;;;8.70;6.40;;;;;;;;;;108332;1249;22591;-79
2023/07/26 03:19:24;;;;;;;11.60;6.00;;;;;;;;;;109008;1250;25391;-80
2023/07/26 03:21:50;;;;;;;7.90;6.10;;;;;;;;;;108352;1250;25487;-80
2023/07/26 03:24:17;;;;;;;8.40;7.50;;;;;;;;;;108355;1249;25145;-79
2023/07/26 03:26:43;;;;;;;11.20;7.80;;;;;;;;;;108401;1250;22553;-79
2023/07/26 03:29:09;;;;;;;7.10;5.90;;;;;;;;;;108401;1249;22532;-79
2023/07/26 03:31:36;;;;;;;8.40;6.60;;;;;;;;;;108366;1249;22685;-79
2023/07/26 03:34:02;;;;;;;8.20;6.20;;;;;;;;;;108364;1250;22647;-79
2023/07/26 03:36:28;;;;;;;9.80;5.60;;;;;;;;;;108338;1249;24297;-80
2023/07/26 03:38:55;;;;;;;9.80;6.20;;;;;;;;;;108376;1249;23215;-79
2023/07/26 03:41:21;;;;;;;10.50;6.40;;;;;;;;;;108356;1250;22603;-79
2023/07/26 03:43:48;;;;;;;7.80;5.60;;;;;;;;;;108529;1249;24319;-79
2023/07/26 03:46:14;;;;;;;9.60;7.20;;;;;;;;;;108559;1250;26334;-80
2023/07/26 03:48:41;;;;;;;10.40;6.30;;;;;;;;;;108497;1248;26479;-80
2023/07/26 03:51:07;;;;;;;8.80;6.10;;;;;;;;;;108386;1250;24268;-79
2023/07/26 03:53:33;;;;;;;10.20;6.50;;;;;;;;;;108505;1249;22518;-79
2023/07/26 03:56:00;;;;;;;7.60;6.00;;;;;;;;;;108426;1250;22562;-79
2023/07/26 03:58:26;;;;;;;8.20;5.30;;;;;;;;;;108468;1249;25455;-79
2023/07/26 04:00:53;;;;;;;16.40;6.40;;;;;;;;;;108453;1249;23225;-79
2023/07/26 04:03:19;;;;;;;11.20;6.30;;;;;;;;;;108448;1249;25315;-80
2023/07/26 04:05:46;;;;;;;7.90;6.20;;;;;;;;;;108443;1249;23013;-80
2023/07/26 04:08:12;;;;;;;9.10;7.00;;;;;;;;;;108423;1250;22535;-80
2023/07/26 04:10:39;;;;;;;7.70;5.70;;;;;;;;;;108390;1249;25795;-80
2023/07/26 04:13:05;;;;;;;7.70;5.30;;;;;;;;;;108355;1249;22757;-80
2023/07/26 04:15:32;;;;;;;9.70;5.30;;;;;;;;;;108402;1249;22912;-80
2023/07/26 04:17:58;;;;;;;7.40;5.90;;;;;;;;;;108411;1249;22621;-79
2023/07/26 04:20:25;;;;;;;9.80;6.00;;;;;;;;;;108454;1250;22642;-79
2023/07/26 04:22:51;;;;;;;8.00;5.50;;;;;;;;;;108347;1250;25197;-80
2023/07/26 04:25:17;;;;;;;10.70;5.90;;;;;;;;;;108222;1251;25535;-79
2023/07/26 04:27:45;;;;;;;7.90;5.80;;;;;;;;;;108065;1251;22601;-79
2023/07/26 04:30:11;;;;;;;7.90;6.00;;;;;;;;;;108271;1251;22545;-79
2023/07/26 04:32:38;;;;;;;8.90;5.80;;;;;;;;;;108230;1251;23909;-79
2023/07/26 04:35:04;;;;;;;10.00;6.40;;;;;;;;;;108247;1251;22547;-80
2023/07/26 04:37:31;;;;;;;14.30;8.40;;;;;;;;;;108167;1251;22553;-79
2023/07/26 04:39:57;;;;;;;10.00;7.60;;;;;;;;;;108172;1251;22539;-79
2023/07/26 04:42:23;;;;;;;8.10;5.50;;;;;;;;;;108376;1250;22703;-80
2023/07/26 04:44:50;;;;;;;7.80;6.40;;;;;;;;;;108324;1253;26509;-79
2023/07/26 04:47:18;;;;;;;9.70;6.70;;;;;;;;;;108161;1249;22531;-79
2023/07/26 04:49:45;;;;;;;11.20;6.40;;;;;;;;;;108213;1251;22619;-80
2023/07/26 04:52:11;;;;;;;8.20;6.40;;;;;;;;;;108229;1250;23210;-79
2023/07/26 04:54:38;;;;;;;10.60;6.80;;;;;;;;;;108236;1250;22649;-79
2023/07/26 04:57:04;;;;;;;8.40;6.50;;;;;;;;;;108418;1253;23317;-81
2023/07/26 04:59:30;;;;;;;7.00;6.30;;;;;;;;;;108278;1249;25531;-80
2023/07/26 05:01:57;;;;;;;8.00;6.90;;;;;;;;;;108229;1250;22574;-79
2023/07/26 05:04:23;;;;;;;9.90;7.50;;;;;;;;;;108267;1250;23654;-79
2023/07/26 05:06:50;;;;;;;8.50;6.80;;;;;;;;;;108331;1251;22582;-79
2023/07/26 05:09:16;;;;;;;9.20;7.00;;;;;;;;;;108296;1250;22648;-79
2023/07/26 05:11:42;;;;;;;9.50;5.90;;;;;;;;;;108306;1249;24259;-80
2023/07/26 05:14:09;;;;;;;9.20;6.50;;;;;;;;;;108215;1250;22657;-80
2023/07/26 05:16:35;;;;;;;10.40;7.60;;;;;;;;;;108227;1250;23293;-80
2023/07/26 05:19:02;;;;;;;13.10;8.10;;;;;;;;;;108290;1253;25404;-79
2023/07/26 05:21:28;;;;;;;13.90;8.80;;;;;;;;;;108241;1249;22559;-80
2023/07/26 05:23:55;;;;;;;11.40;7.30;;;;;;;;;;108200;1251;22547;-79
2023/07/26 05:26:21;;;;;;;8.60;6.80;;;;;;;;;;108195;1251;22636;-80
2023/07/26 05:28:47;;;;;;;9.20;5.40;;;;;;;;;;108244;1250;22577;-79
2023/07/26 05:31:14;;;;;;;10.30;5.90;;;;;;;;;;108198;1253;22570;-79
2023/07/26 05:33:40;;;;;;;8.20;5.80;;;;;;;;;;108276;1249;22542;-80
2023/07/26 05:36:07;;;;;;;9.80;6.40;;;;;;;;;;108244;1251;22558;-80
2023/07/26 05:38:33;;;;;;;12.00;6.80;;;;;;;;;;108333;1249;23885;-79
2023/07/26 05:41:03;;;;;;;8.50;6.20;;;;;;;;;;108469;1249;25321;-79
2023/07/26 05:43:30;;;;;;;12.00;6.20;;;;;;;;;;108189;1249;22518;-79
2023/07/26 05:45:56;;;;;;;8.10;5.40;;;;;;;;;;108340;1250;22561;-79
2023/07/26 05:48:23;;;;;;;9.00;6.10;;;;;;;;;;108371;1250;24220;-79
2023/07/26 05:50:50;;;;;;;6.70;5.60;;;;;;;;;;108294;1249;22572;-79
2023/07/26 05:53:16;;;;;;;7.60;5.70;;;;;;;;;;108811;1250;22573;-80
2023/07/26 05:55:42;;;;;;;7.90;5.20;;;;;;;;;;108594;1250;24229;-79
2023/07/26 05:58:09;;;;;;;8.50;4.70;;;;;;;;;;108483;1249;22579;-80
2023/07/26 06:00:35;;;;;;;10.60;5.90;;;;;;;;;;108570;1250;22523;-79
2023/07/26 06:03:02;;;;;;;7.30;5.70;;;;;;;;;;108964;1249;22581;-80
2023/07/26 06:05:29;;;;;;;10.00;7.50;;;;;;;;;;108420;1249;23111;-80
2023/07/26 06:07:55;;;;;;;7.90;5.30;;;;;;;;;;108572;1250;25337;-79
2023/07/26 06:10:22;;;;;;;7.40;4.90;;;;;;;;;;108485;1250;22872;-80
2023/07/26 06:12:49;;;;;;;8.10;6.40;;;;;;;;;;108631;1250;22554;-79
2023/07/26 06:15:15;;;;;;;8.70;6.50;;;;;;;;;;108590;1249;22625;-80
2023/07/26 06:17:41;;;;;;;7.90;6.30;;;;;;;;;;108633;1249;22538;-79
2023/07/26 06:20:10;;;;;;;8.90;5.80;;;;;;;;;;108483;1253;25385;-80
2023/07/26 06:22:37;;;;;;;7.40;4.80;;;;;;;;;;108664;1249;22149;-79
2023/07/26 06:25:04;;;;;;;6.30;4.50;;;;;;;;;;108651;1249;22579;-79
2023/07/26 06:27:30;;;;;;;8.90;5.00;;;;;;;;;;108495;1249;22553;-79
2023/07/26 06:29:56;;;;;;;8.80;5.70;;;;;;;;;;108520;1249;22637;-79
2023/07/26 06:32:40;;;;;;;9.70;5.00;;;;;;;;;;108694;1249;22994;-80
2023/07/26 06:35:08;;;;;;;8.00;5.50;;;;;;;;;;108575;1251;23337;-79
2023/07/26 06:37:35;;;;;;;7.10;4.90;;;;;;;;;;108546;1249;22539;-80
2023/07/26 06:40:01;;;;;;;6.20;4.30;;;;;;;;;;108551;1250;22527;-79
2023/07/26 06:42:28;;;;;;;12.80;6.80;;;;;;;;;;108640;1249;24388;-80
2023/07/26 06:44:54;;;;;;;10.80;5.80;;;;;;;;;;108699;1249;25268;-79
2023/07/26 06:47:20;;;;;;;9.90;5.50;;;;;;;;;;108772;1251;22562;-80
2023/07/26 06:49:47;;;;;;;8.90;5.70;;;;;;;;;;108791;1250;24367;-79
2023/07/26 06:52:13;;;;;;;9.60;4.20;;;;;;;;;;108881;1250;23284;-80
2023/07/26 06:54:40;;;;;;;4.50;3.20;;;;;;;;;;108874;1249;25447;-79
2023/07/26 06:57:06;;;;;;;8.20;3.80;;;;;;;;;;108819;1249;24351;-80
2023/07/26 06:59:32;;;;;;;4.40;2.80;;;;;;;;;;109063;1251;22534;-79
2023/07/26 07:01:59;;;;;;;3.70;2.30;;;;;;;;;;109059;1249;25306;-80
2023/07/26 07:04:26;;;;;;;6.20;3.00;;;;;;;;;;109056;1250;25400;-79
2023/07/26 07:06:54;;;;;;;4.60;2.80;;;;;;;;;;108925;1249;22667;-80
2023/07/26 07:09:20;;;;;;;4.50;2.80;;;;;;;;;;108876;1250;153019;-79
2023/07/26 07:11:46;;;;;;;4.70;3.10;;;;;;;;;;108804;1251;22707;-79
2023/07/26 07:14:13;;;;;;;3.70;3.00;;;;;;;;;;109030;1249;22654;-80
2023/07/26 07:16:39;;;;;;;4.40;3.00;;;;;;;;;;108547;1249;23304;-80
2023/07/26 07:19:05;;;;;;;4.80;3.20;;;;;;;;;;108616;1249;23299;-80
2023/07/26 07:21:32;;;;;;;8.20;3.50;;;;;;;;;;108412;1253;23155;-78
2023/07/26 07:23:58;;;;;;;6.80;4.40;;;;;;;;;;108566;1251;22864;-78
2023/07/26 07:26:25;;;;;;;7.70;4.40;;;;;;;;;;108673;1249;24279;-79
2023/07/26 07:28:51;;;;;;;9.00;4.50;;;;;;;;;;108645;1250;22537;-80
2023/07/26 07:31:18;;;;;;;7.50;3.90;;;;;;;;;;108582;1250;23797;-79
2023/07/26 07:33:44;;;;;;;6.00;4.20;;;;;;;;;;108860;1249;22573;-80
2023/07/26 07:36:15;;;;;;;7.70;5.10;;;;;;;;;;110002;1249;22526;-81
2023/07/26 07:38:41;;;;;;;6.60;4.70;;;;;;;;;;110642;1250;22437;-81
2023/07/26 07:41:07;;;;;;;6.40;4.10;;;;;;;;;;109034;1249;22664;-80
2023/07/26 07:43:34;;;;;;;6.40;4.30;;;;;;;;;;108535;1249;22557;-79
2023/07/26 07:46:01;;;;;;;6.80;4.30;;;;;;;;;;108563;1253;25234;-81
2023/07/26 07:48:27;;;;;;;5.00;3.30;;;;;;;;;;108571;1253;25315;-80
2023/07/26 07:50:54;;;;;;;7.00;4.30;;;;;;;;;;108452;1249;22558;-80
2023/07/26 07:53:21;;;;;;;5.20;3.50;;;;;;;;;;108577;1249;24214;-80
2023/07/26 07:55:47;;;;;;;6.20;3.80;;;;;;;;;;108498;1249;22525;-79
2023/07/26 07:58:14;;;;;;;7.60;4.20;;;;;;;;;;108383;1253;25289;-79
2023/07/26 08:00:40;;;;;;;6.40;4.40;;;;;;;;;;108425;1250;22521;-80
2023/07/26 08:03:07;;;;;;;9.20;6.00;;;;;;;;;;108485;1251;23255;-78
2023/07/26 08:05:33;;;;;;;15.40;6.90;;;;;;;;;;108368;1253;22552;-79
2023/07/26 08:08:00;;;;;;;10.00;6.60;;;;;;;;;;108564;1249;24244;-79
2023/07/26 08:10:26;;;;;;;10.90;6.80;;;;;;;;;;108437;1249;22553;-78
2023/07/26 08:12:53;;;;;;;9.70;6.60;;;;;;;;;;108293;1250;22540;-80
2023/07/26 08:15:20;;;;;;;6.20;4.90;;;;;;;;;;108393;1250;22628;-78
2023/07/26 08:17:47;;;;;;;7.90;5.80;;;;;;;;;;108525;1249;22529;-80
2023/07/26 08:20:13;;;;;;;11.00;6.30;;;;;;;;;;108375;1254;22556;-80
2023/07/26 08:22:39;;;;;;;6.10;4.90;;;;;;;;;;108451;1250;25451;-80
2023/07/26 08:25:06;;;;;;;7.60;4.70;;;;;;;;;;108428;1249;22568;-79
2023/07/26 08:27:33;;;;;;;6.10;5.10;;;;;;;;;;108301;1249;22530;-79
2023/07/26 08:29:59;;;;;;;5.20;4.70;;;;;;;;;;108389;1253;22571;-79
2023/07/26 08:32:26;;;;;;;5.70;5.10;;;;;;;;;;108478;1249;22551;-79
2023/07/26 08:34:52;;;;;;;6.40;4.90;;;;;;;;;;108440;1249;24305;-79
2023/07/26 08:37:18;;;;;;;7.30;4.70;;;;;;;;;;108497;1250;22576;-80
2023/07/26 08:39:45;;;;;;;5.90;4.90;;;;;;;;;;108462;1250;23106;-80
2023/07/26 08:42:11;;;;;;;8.40;5.60;;;;;;;;;;108499;1250;23314;-80
2023/07/26 08:44:38;;;;;;;7.80;5.30;;;;;;;;;;108525;1249;22541;-79
2023/07/26 08:47:05;;;;;;;7.10;5.50;;;;;;;;;;109096;1250;25300;-80
2023/07/26 08:49:31;;;;;;;6.50;5.80;;;;;;;;;;108346;1250;26382;-79
2023/07/26 08:51:57;;;;;;;6.10;5.30;;;;;;;;;;108354;1249;26382;-80
2023/07/26 08:54:24;;;;;;;9.50;5.20;;;;;;;;;;108488;1250;22546;-80
2023/07/26 08:56:51;;;;;;;4.20;3.80;;;;;;;;;;108342;1249;22540;-80
2023/07/26 08:59:17;;;;;;;4.50;3.80;;;;;;;;;;108285;1250;22549;-78
2023/07/26 09:01:44;;;;;;;6.60;3.70;;;;;;;;;;108439;1249;22530;-79
2023/07/26 09:04:10;;;;;;;5.60;3.90;;;;;;;;;;108596;1251;22517;-78
2023/07/26 09:06:40;;;;;;;5.40;4.40;;;;;;;;;;108372;1249;22897;-80
2023/07/26 09:09:06;;;;;;;6.30;4.40;;;;;;;;;;108341;1250;25493;-80
2023/07/26 09:11:33;;;;;;;7.30;4.40;;;;;;;;;;108331;1250;22520;-79
2023/07/26 09:14:00;;;;;;;5.70;4.70;;;;;;;;;;109308;1249;22785;-80
2023/07/26 09:16:27;;;;;;;4.90;3.50;;;;;;;;;;110611;1250;22447;-79
2023/07/26 09:18:55;;;;;;;6.10;3.80;;;;;;;;;;108540;1250;22531;-79
2023/07/26 09:21:26;;;;;;;4.20;3.60;;;;;;;;;;108346;1249;22600;-80
2023/07/26 09:23:52;;;;;;;5.60;3.90;;;;;;;;;;108410;1252;25387;-79
2023/07/26 09:26:42;;;;;;;4.30;3.50;;;;;;;;;;108240;1249;23027;-78
2023/07/26 09:29:09;;;;;;;5.10;3.20;;;;;;;;;;108077;1254;22524;-80
2023/07/26 09:31:42;;;;;;;5.70;3.90;;;;;;;;;;108233;1249;22522;-80
2023/07/26 09:34:11;;;;;;;5.60;4.30;;;;;;;;;;108281;1249;25488;-78
2023/07/26 09:36:44;;;;;;;4.90;3.00;;;;;;;;;;108175;1249;22617;-78
2023/07/26 09:39:11;;;;;;;4.90;3.00;;;;;;;;;;108141;1253;25265;-80
2023/07/26 09:41:37;;;;;;;4.40;2.80;;;;;;;;;;108279;1249;22561;-78
2023/07/26 09:44:07;;;;;;;4.00;2.90;;;;;;;;;;108428;1249;22540;-78
2023/07/26 09:46:48;;;;;;;4.60;3.80;;;;;;;;;;108246;1249;25164;-80
2023/07/26 09:49:14;;;;;;;3.50;3.00;;;;;;;;;;108249;1249;23092;-78
2023/07/26 09:51:44;;;;;;;5.10;2.20;;;;;;;;;;108317;1252;22549;-79
2023/07/26 09:54:10;;;;;;;5.10;2.40;;;;;;;;;;108404;1250;22520;-79
2023/07/26 09:56:38;;;;;;;2.00;1.50;;;;;;;;;;108180;1249;23008;-80
2023/07/26 09:59:06;;;;;;;2.00;1.70;;;;;;;;;;108201;1250;22586;-78
2023/07/26 10:01:33;;;;;;;;;;;;;;;;;;108285;1251;24233;-79
2023/07/26 10:03:59;;;;;;;2.40;1.50;;;;;;;;;;108300;1252;24257;-78
2023/07/26 10:06:26;;;;;;;1.70;1.50;;;;;;;;;;108198;1249;22574;-80
2023/07/26 10:08:53;;;;;;;3.10;1.60;;;;;;;;;;108114;1250;25270;-80
2023/07/26 10:11:19;;;;;;;1.90;1.50;;;;;;;;;;108259;1254;22593;-78
2023/07/26 10:13:45;;;;;;;3.90;1.90;;;;;;;;;;108303;1249;24236;-79
2023/07/26 10:16:12;;;;;;;2.30;1.80;;;;;;;;;;108172;1249;24186;-78
2023/07/26 10:18:38;;;;;;;3.20;2.20;;;;;;;;;;108331;1249;26460;-79
2023/07/26 10:21:04;;;;;;;3.00;1.30;;;;;;;;;;108276;1249;22533;-79
2023/07/26 10:23:31;;;;;;;2.80;1.80;;;;;;;;;;108351;1249;24411;-80
2023/07/26 10:25:57;;;;;;;2.00;1.60;;;;;;;;;;108354;1249;22586;-80
2023/07/26 10:28:24;;;;;;;2.10;1.70;;;;;;;;;;108308;1249;22531;-78
2023/07/26 10:30:51;;;;;;;2.80;1.50;;;;;;;;;;108254;1250;22645;-80
2023/07/26 10:33:17;;;;;;;2.50;2.10;;;;;;;;;;108446;1251;22547;-80
2023/07/26 10:35:44;;;;;;;3.40;2.40;;;;;;;;;;108188;1249;24239;-78
2023/07/26 10:38:15;;;;;;;4.30;2.50;;;;;;;;;;108275;1249;24190;-80
2023/07/26 10:40:43;;;;;;;3.00;2.30;;;;;;;;;;108246;1250;24226;-80
2023/07/26 10:43:22;;;;;;;3.20;2.10;;;;;;;;;;108300;1250;22471;-80
2023/07/26 10:45:49;;;;;;;4.20;2.70;;;;;;;;;;108252;1254;22524;-79
2023/07/26 10:48:26;;;;;;;3.10;2.50;;;;;;;;;;108146;1249;22589;-80
2023/07/26 10:50:57;;;;;;;4.60;3.70;;;;;;;;;;108517;1251;26595;-80
2023/07/26 10:53:30;;;;;;;4.80;3.20;;;;;;;;;;108252;1250;22808;-79
2023/07/26 10:56:07;;;;;;;4.10;3.20;;;;;;;;;;108390;1250;22583;-80
2023/07/26 10:58:33;;;;;;;3.90;3.10;;;;;;;;;;108452;1251;22609;-78
2023/07/26 11:01:01;;;;;;;3.30;2.30;;;;;;;;;;108620;1249;25070;-80
2023/07/26 11:03:28;;;;;;;3.20;2.50;;;;;;;;;;108553;1249;22671;-80
2023/07/26 11:05:55;;;;;;;7.40;3.50;;;;;;;;;;108367;1249;24314;-80
2023/07/26 11:08:21;;;;;;;4.50;3.70;;;;;;;;;;108293;1250;23130;-79
2023/07/26 11:10:51;;;;;;;5.20;3.60;;;;;;;;;;108274;1249;23203;-79
2023/07/26 11:13:18;;;;;;;10.30;4.00;;;;;;;;;;108343;1254;22546;-80
2023/07/26 11:15:50;;;;;;;6.90;4.70;;;;;;;;;;108192;1251;23581;-80
2023/07/26 11:18:17;;;;;;;6.40;4.40;;;;;;;;;;108227;1249;22582;-80
2023/07/26 11:20:46;;;;;;;9.10;5.40;;;;;;;;;;108353;1254;22554;-79
2023/07/26 11:23:26;;;;;;;7.70;5.40;;;;;;;;;;108500;1249;22570;-79
2023/07/26 11:25:56;;;;;;;7.60;6.00;;;;;;;;;;108355;1250;24281;-79
2023/07/26 11:28:24;;;;;;;7.70;5.70;;;;;;;;;;108159;1249;24212;-79
2023/07/26 11:30:52;;;;;;;10.00;6.90;;;;;;;;;;107888;1249;22523;-78
2023/07/26 11:33:25;;;;;;;10.80;5.70;;;;;;;;;;108014;1250;23121;-79
2023/07/26 11:35:51;;;;;;;12.70;4.90;;;;;;;;;;107805;1250;23140;-78
2023/07/26 11:38:18;;;;;;;9.80;6.00;;;;;;;;;;107629;1250;22523;-79
2023/07/26 11:40:44;;;;;;;10.30;5.10;;;;;;;;;;107547;1250;22537;-79
2023/07/26 11:43:11;;;;;;;8.10;4.20;;;;;;;;;;107752;1250;22527;-80
2023/07/26 11:45:37;;;;;;;7.20;3.70;;;;;;;;;;107602;1253;22539;-77
2023/07/26 11:48:05;;;;;;;4.40;3.00;;;;;;;;;;107640;1250;24315;-79
2023/07/26 11:50:32;;;;;;;6.60;2.90;;;;;;;;;;107681;1249;22517;-79
2023/07/26 11:53:03;;;;;;;5.40;3.20;;;;;;;;;;107664;1249;22521;-79
2023/07/26 11:55:30;;;;;;;4.40;3.30;;;;;;;;;;107849;1249;22578;-78
2023/07/26 11:57:59;;;;;;;4.80;2.40;;;;;;;;;;107866;1251;22561;-78
2023/07/26 12:00:26;;;;;;;3.10;1.90;;;;;;;;;;107846;1250;22524;-78
2023/07/26 12:02:52;;;;;;;5.70;3.00;;;;;;;;;;107874;1250;22934;-79
2023/07/26 12:05:25;;;;;;;2.30;1.70;;;;;;;;;;107880;1249;22545;-78
2023/07/26 12:07:52;;;;;;;1.60;1.30;;;;;;;;;;107818;1249;25184;-78
2023/07/26 12:10:32;;;;;;;5.00;2.30;;;;;;;;;;107882;1250;24177;-78
2023/07/26 12:12:58;;;;;;;3.00;1.70;;;;;;;;;;107869;1256;22524;-79
2023/07/26 12:15:25;;;;;;;4.10;1.80;;;;;;;;;;107844;1250;25377;-78
2023/07/26 12:18:01;;;;;;;2.60;1.70;;;;;;;;;;107597;1249;22759;-79
2023/07/26 12:20:29;;;;;;;1.80;1.20;;;;;;;;;;107624;1250;22528;-79
2023/07/26 12:22:56;;;;;;;3.20;1.90;;;;;;;;;;107634;1250;22612;-79
2023/07/26 12:25:36;;;;;;;3.80;1.90;;;;;;;;;;107848;1250;25381;-79
2023/07/26 12:28:06;;;;;;;3.10;1.50;;;;;;;;;;110668;1252;22326;-78
2023/07/26 12:30:32;;;;;;;4.40;1.70;;;;;;;;;;110739;1249;22097;-79
2023/07/26 12:33:09;;;;;;;1.70;1.00;;;;;;;;;;110760;1249;22250;-78
2023/07/26 12:35:36;;;;;;;2.50;1.50;;;;;;;;;;110702;1250;23329;-80
2023/07/26 12:38:11;;;;;;;5.20;1.60;;;;;;;;;;109260;1250;22536;-78
2023/07/26 12:40:38;;;;;;;1.10;0.90;;;;;;;;;;108017;1250;27515;-79
2023/07/26 12:43:24;;;;;;;1.90;1.10;;;;;;;;;;107759;1249;22808;-79
2023/07/26 12:45:50;;;;;;;2.20;1.30;;;;;;;;;;107789;1249;24370;-77
2023/07/26 12:48:17;;;;;;;4.40;1.70;;;;;;;;;;107928;1250;22686;-77
2023/07/26 12:50:43;;;;;;;3.70;2.20;;;;;;;;;;107902;1249;22624;-78
2023/07/26 12:53:10;;;;;;;3.30;1.80;;;;;;;;;;107863;1253;23420;-79
2023/07/26 12:55:39;;;;;;;5.30;2.40;;;;;;;;;;107932;1254;25383;-79
2023/07/26 12:58:06;;;;;;;5.00;2.30;;;;;;;;;;107847;1249;22874;-79
2023/07/26 13:00:32;;;;;;;7.50;2.30;;;;;;;;;;107771;1250;22640;-79
2023/07/26 13:02:59;;;;;;;2.80;2.00;;;;;;;;;;107903;1250;22982;-79
2023/07/26 13:05:25;;;;;;;4.40;1.80;;;;;;;;;;107864;1250;23155;-79
2023/07/26 13:07:52;;;;;;;4.60;1.80;;;;;;;;;;107813;1250;23148;-79
2023/07/26 13:10:19;;;;;;;3.20;1.70;;;;;;;;;;107701;1249;22544;-79
2023/07/26 13:12:45;;;;;;;2.40;1.70;;;;;;;;;;107753;1252;23234;-78
2023/07/26 13:15:11;;;;;;;1.80;1.60;;;;;;;;;;107841;1251;24105;-78
2023/07/26 13:17:38;;;;;;;2.40;1.60;;;;;;;;;;107816;1250;22993;-79
2023/07/26 13:20:04;;;;;;;3.60;2.00;;;;;;;;;;107927;1254;22563;-79
2023/07/26 13:22:31;;;;;;;5.50;1.90;;;;;;;;;;107863;1249;25390;-81
2023/07/26 13:24:58;;;;;;;4.80;2.30;;;;;;;;;;107899;1250;25364;-77
2023/07/26 13:27:24;;;;;;;5.90;2.80;;;;;;;;;;107955;1250;22617;-78
2023/07/26 13:29:50;;;;;;;5.30;2.00;;;;;;;;;;107807;1249;24230;-78
2023/07/26 13:32:17;;;;;;;14.30;6.60;;;;;;;;;;107808;1249;24391;-78
2023/07/26 13:34:43;;;;;;;9.30;5.40;;;;;;;;;;107883;1250;22512;-78
2023/07/26 13:37:10;;;;;;;5.50;3.60;;;;;;;;;;107739;1250;22528;-77
2023/07/26 13:39:36;;;;;;;11.90;5.80;;;;;;;;;;107710;1250;23199;-77
2023/07/26 13:42:02;;;;;;;7.10;4.60;;;;;;;;;;107790;1252;22535;-78
2023/07/26 13:44:29;;;;;;;6.20;3.60;;;;;;;;;;107822;1250;25225;-77
2023/07/26 13:46:55;;;;;;;7.10;5.30;;;;;;;;;;107988;1250;22554;-77
2023/07/26 13:49:21;;;;;;;27.90;17.60;;;;;;;;;;107616;1249;22550;-78
2023/07/26 13:51:48;;;;;;;11.30;7.30;;;;;;;;;;107619;1250;22611;-78
2023/07/26 13:54:14;;;;;;;6.20;3.50;;;;;;;;;;107702;1253;22538;-78
2023/07/26 13:56:41;;;;;;;42.60;28.90;;;;;;;;;;107761;1251;22535;-78
2023/07/26 13:59:07;;;;;;;12.20;8.80;;;;;;;;;;107740;1250;23039;-78
2023/07/26 14:01:34;;;;;;;8.10;5.30;;;;;;;;;;107680;1250;25385;-79
2023/07/26 14:04:00;;;;;;;4.90;3.20;;;;;;;;;;107952;1253;22531;-80
2023/07/26 14:06:29;;;;;;;4.00;2.50;;;;;;;;;;107905;1250;22554;-78
2023/07/26 14:08:55;;;;;;;4.60;3.50;;;;;;;;;;107799;1254;22544;-79
2023/07/26 14:11:21;;;;;;;4.20;3.00;;;;;;;;;;107827;1250;22531;-78
2023/07/26 14:13:48;;;;;;;5.50;3.90;;;;;;;;;;107797;1250;23160;-78
2023/07/26 14:16:14;;;;;;;6.30;3.10;;;;;;;;;;107747;1250;22614;-79
2023/07/26 14:18:41;;;;;;;4.10;2.80;;;;;;;;;;107888;1253;24217;-79
2023/07/26 14:21:07;;;;;;;8.90;4.10;;;;;;;;;;107855;1250;22549;-78
2023/07/26 14:23:34;;;;;;;13.80;4.30;;;;;;;;;;107880;1253;22596;-79
2023/07/26 14:26:00;;;;;;;13.20;5.20;;;;;;;;;;107775;1250;25319;-78
2023/07/26 14:28:27;;;;;;;5.10;2.90;;;;;;;;;;107670;1249;23234;-77